Address 0x1d3286a3348fa99852d147c57a79045b41c4f713 5

Txn Hash Method
Block
From
To
Value [Txn Fee]
0x6df44f6d4d19ada1ee07e6aa76e7864cbec1e7f9f3e5a4e647b1b51dcb18b591Swap Exact Token...23683502022-08-12 21:53:546 mins ago0x1d3286a3348fa99852d147c57a79045b41c4f713OUT SushiSwap: Router0 MOVR0.‍00020880783
0x6945c5f3346ee7913e3e8593177952bd66d24b898f5d3cd54125cb1afe6845a8Swap Exact Token...23683452022-08-12 21:52:547 mins ago0x1d3286a3348fa99852d147c57a79045b41c4f713OUT Solarbeam: Solar Router0 MOVR0.‍00021322134
0x54e46336515156645050e2ea33808400248f6f03cf25e0f7904f1ce18808ea2eSwap Exact Token...23683182022-08-12 21:46:1814 mins ago0x1d3286a3348fa99852d147c57a79045b41c4f713OUT Solarbeam: Solar Router0 MOVR0.‍00021317175
0x15bc52d1e502c2b7ba6fae7cd53526a450dad0336d2ce03cc089b3c820d397cfSwap Exact Token...23683162022-08-12 21:45:5414 mins ago0x1d3286a3348fa99852d147c57a79045b41c4f713OUT SushiSwap: Router0 MOVR0.‍00020890179
0x5d6331c571f582d9519e8abd2fe237f9958e1f76a812c59d2becfd6a8c037f12Swap Exact Token...23683162022-08-12 21:45:5414 mins ago0x1d3286a3348fa99852d147c57a79045b41c4f713OUT Solarbeam: Solar Router0 MOVR0.‍00021310911
0x534d0e6a631f8445946d368400d8bf6e7077a2bd8c92be11626bd61efd94bc63Swap Exact Token...23683142022-08-12 21:45:2415 mins ago0x1d3286a3348fa99852d147c57a79045b41c4f713OUT SushiSwap: Router0 MOVR0.‍00020880783
0x130e04629e7d2b3c0c63df0f7a1639707861e5a84a5e0cbeca5dd88331f301f7Swap Exact Token...23683142022-08-12 21:45:2415 mins ago0x1d3286a3348fa99852d147c57a79045b41c4f713OUT Solarbeam: Solar Router0 MOVR0.‍00021314043
0xff5c2380602a1062700ca641c6fee187b187f134a9853ee45ebc79fa0a1e17d8Swap Exact Token...23683082022-08-12 21:43:4816 mins ago0x1d3286a3348fa99852d147c57a79045b41c4f713OUT SushiSwap: Router0 MOVR0.‍00020890179
0xc44c12b3be691a4c9e8d365d7c4e98a9d44309bdc027e501c9526832318b6ad6Swap Exact Token...23683072022-08-12 21:43:3617 mins ago0x1d3286a3348fa99852d147c57a79045b41c4f713OUT Solarbeam: Solar Router0 MOVR0.‍00021317175
0x60faa949277a835b270c3029d2c83529cfe71ca86214450f945b6aec03bd3312Swap Exact Token...23681122022-08-12 20:56:241 hr 4 mins ago0x1d3286a3348fa99852d147c57a79045b41c4f713OUT SushiSwap: Router0 MOVR0.‍00020821797
0xe1c5f855f713442579c99d13238469eb329a2f27976958db83f2418e65849c2bSwap Exact Token...23681122022-08-12 20:56:241 hr 4 mins ago0x1d3286a3348fa99852d147c57a79045b41c4f713OUT Solarbeam: Solar Router0 MOVR0.‍00021275415
0x44bf26213ff9a78eab1ba9c497a489ae045d1fc02525b7235db05f5af014be7fSwap Exact Token...23680942022-08-12 20:52:181 hr 8 mins ago0x1d3286a3348fa99852d147c57a79045b41c4f713OUT SushiSwap: Router0 MOVR0.‍00020890179
0x0628e9c35a76f830b366da897de8e052a02bb10c13617bcd80537d2c6537a7abSwap Exact Token...23680942022-08-12 20:52:181 hr 8 mins ago0x1d3286a3348fa99852d147c57a79045b41c4f713OUT Solarbeam: Solar Router0 MOVR0.‍00021317175
0x167856d8f7a0d3ccb3083b2b74118783fbef7b6c45ccb819428f878b9007038aSwap Exact Token...23680942022-08-12 20:52:181 hr 8 mins ago0x1d3286a3348fa99852d147c57a79045b41c4f713OUT Solarbeam: Solar Router0 MOVR0.‍00021325266
0x6ba00642cd2ca2097acbcfa8275e4e6120aa6ccb264cb0f35590a0fd6ee8ae95Swap Exact Token...23677262022-08-12 19:18:122 hrs 42 mins ago0x1d3286a3348fa99852d147c57a79045b41c4f713OUT SushiSwap: Router0 MOVR0.‍00020880783
0xfe7a323eaf9845143fbdda62942c2182e14f7470f27b0bd4d68dc00c9d9568caSwap Exact Token...23676832022-08-12 19:07:182 hrs 53 mins ago0x1d3286a3348fa99852d147c57a79045b41c4f713OUT SushiSwap: Router0 MOVR0.‍00020821797
0x9c5e4d5b9ccc60388caf62ad163fef24d8383360b9ecd459ab526b4515926090Swap Exact Token...23676832022-08-12 19:07:182 hrs 53 mins ago0x1d3286a3348fa99852d147c57a79045b41c4f713OUT Solarbeam: Solar Router0 MOVR0.‍00021275415
0x35a4f2017243b3c00b70d6236191b4df0f6a2401b7735b720782bd6242d37579Swap Exact Token...23676772022-08-12 19:05:362 hrs 55 mins ago0x1d3286a3348fa99852d147c57a79045b41c4f713OUT SushiSwap: Router0 MOVR0.‍00020890179
0x8cf0a618f6c4a4a3e44d8fb0afd945419aea5db713959c3099876fccdfb34fe5Swap Exact Token...23676772022-08-12 19:05:362 hrs 55 mins ago0x1d3286a3348fa99852d147c57a79045b41c4f713OUT Solarbeam: Solar Router0 MOVR0.‍00021317175
0x2e955ebabb05d739cb800d19e2d09ad3b37ab0524742ffdb342bee088e3d6017Swap Exact Token...23676772022-08-12 19:05:362 hrs 55 mins ago0x1d3286a3348fa99852d147c57a79045b41c4f713OUT Solarbeam: Solar Router0 MOVR0.‍00020212362
0xc102f91666c8480272327e542b1d34f907179829d908e07ae22315808e53f463Swap Exact Token...23675832022-08-12 18:43:243 hrs 17 mins ago0x1d3286a3348fa99852d147c57a79045b41c4f713OUT SushiSwap: Router0 MOVR0.‍00020877651
0xd20f75632d3816b1eb8a6b25500ad4f254c0167b9ec93dea5fbc7e8235e1f1a4Swap Exact Token...23675832022-08-12 18:43:243 hrs 17 mins ago0x1d3286a3348fa99852d147c57a79045b41c4f713OUT Solarbeam: Solar Router0 MOVR0.‍00020212362
0x8a0dab84bbccf4dae8aebe205307a174a2bc8c73b646889c2007de8d68aeb79eSwap Exact Token...23674402022-08-12 18:09:423 hrs 51 mins ago0x1d3286a3348fa99852d147c57a79045b41c4f713OUT Solarbeam: Solar Router0 MOVR0.‍00009997866
0xa6c03acc6711350a51f3fa670da6be6e07a708be370a09cdf398faff2f7e405fSwap Exact Token...23674392022-08-12 18:09:243 hrs 51 mins ago0x1d3286a3348fa99852d147c57a79045b41c4f713OUT Solarbeam: Solar Router0 MOVR0.‍00021236004
0x034bfa4301d3e34bb306f8d36ee462b1a1c19cbd04181cc98e311fffe41c3669Swap Exact Token...23674362022-08-12 18:08:483 hrs 51 mins ago0x1d3286a3348fa99852d147c57a79045b41c4f713OUT SushiSwap: Router0 MOVR0.‍00008309457
[ Download CSV Export 
Latest 5 internal transactions
Parent Txn Hash Block From To Value
0x106af965b5085b9a3c2a5ef81729374d9cade2d86d8a0b81a76e71383eac522e23475972022-08-09 9:53:003 days 12 hrs ago Solarbeam: Solar Router0x1d3286a3348fa99852d147c57a79045b41c4f7133.‍081696193201912908 MOVR
0xc5ff1e72a9daecf0bb3edae5ea1864d980c39ac297a8ae8f19aeef89de2e00ed23475962022-08-09 9:52:483 days 12 hrs ago 0x98878b06940ae243284ca214f92bb71a2b032b8a0x1d3286a3348fa99852d147c57a79045b41c4f7130.‍417217855807476094 MOVR
0x81988081cd4442e8ec15b8178ffc8c7746b36996c81a7e403f4cd6eb2c8a0ff123309712022-08-06 13:28:486 days 8 hrs ago 0x98878b06940ae243284ca214f92bb71a2b032b8a0x1d3286a3348fa99852d147c57a79045b41c4f7131 MOVR
0x4fb96a7db4fe014d965966d80cdc41963ca73b045ebb10a62d9b843bf214a53023308222022-08-06 12:52:246 days 9 hrs ago 0x98878b06940ae243284ca214f92bb71a2b032b8a0x1d3286a3348fa99852d147c57a79045b41c4f713343.‍829656115674010407 MOVR
0x624516ff4ea7b50a9b77ba5397d78219a6cbb686648f14b70adec12d8c2f968122451402022-07-22 10:25:1221 days 11 hrs ago 0xf50225a84382c74cbdea10b0c176f71fc3de0c4d0x1d3286a3348fa99852d147c57a79045b41c4f7132 MOVR
[ Download CSV Export 
Loading

Contract Name:
0

Compiler Version
0

Optimization Enabled:
0

Other Settings:
-NA-
Block Transaction Gas Used Reward
Age Block Fee Address BC Fee Address Voting Power Jailed Incoming
Block Uncle Number Difficulty Gas Used Reward
Loading
Loading
Make sure to use the "Vote Down" button for any spammy posts, and the "Vote Up" for interesting conversations.